createdAt,value
2022-08-29T00:00:30.210Z,102282.63
2022-08-29T00:03:00.466Z,102255.94
2022-08-29T00:05:34.772Z,102285.09
2022-08-29T00:08:06.483Z,102285.06
2022-08-29T00:10:37.192Z,102292.06
2022-08-29T00:13:07.279Z,102269.88
2022-08-29T00:15:42.235Z,102274.09
2022-08-29T00:18:14.434Z,102290.81
2022-08-29T00:20:45.451Z,102277.47
2022-08-29T00:23:14.002Z,102282.97
2022-08-29T00:25:42.663Z,102288.91
2022-08-29T00:28:11.079Z,102280.88
2022-08-29T00:30:39.525Z,102288.72
2022-08-29T00:33:08.036Z,102272.56
2022-08-29T00:35:40.439Z,102282.16
2022-08-29T00:38:13.979Z,102288.56
2022-08-29T00:40:50.359Z,102273.31
2022-08-29T00:43:22.566Z,102296.50
2022-08-29T00:46:04.029Z,102305.94
2022-08-29T00:48:34.281Z,102306.03
2022-08-29T00:51:07.647Z,102264.38
2022-08-29T00:53:43.863Z,102299.06
2022-08-29T00:56:16.536Z,102289.97
2022-08-29T00:58:51.364Z,102300.41
2022-08-29T01:01:20.926Z,102288.75
2022-08-29T01:03:50.151Z,102282.53
2022-08-29T01:06:19.922Z,102304.75
2022-08-29T01:08:50.067Z,102275.47
2022-08-29T01:11:44.020Z,102289.53
2022-08-29T01:14:12.402Z,102298.59
2022-08-29T01:16:41.354Z,102295.09
2022-08-29T01:19:27.984Z,102303.00
2022-08-29T01:22:06.426Z,102289.53
2022-08-29T01:24:41.272Z,102311.88
2022-08-29T01:27:12.307Z,102287.09
2022-08-29T01:29:40.866Z,102280.72
2022-08-29T01:32:09.307Z,102293.25
2022-08-29T01:34:37.603Z,102302.88
2022-08-29T01:37:09.496Z,102271.09
2022-08-29T01:39:43.387Z,102273.97
2022-08-29T01:42:17.956Z,102281.78
2022-08-29T01:44:52.315Z,102282.50
2022-08-29T01:47:21.860Z,102296.72
2022-08-29T01:49:50.125Z,102306.44
2022-08-29T01:52:18.541Z,102293.94
2022-08-29T01:54:48.359Z,102278.13
2022-08-29T01:57:19.072Z,102303.84
2022-08-29T01:59:47.850Z,102284.13
2022-08-29T02:02:21.410Z,102299.44
2022-08-29T02:04:50.159Z,102289.41
2022-08-29T02:07:21.888Z,102297.44
2022-08-29T02:09:52.050Z,102312.31
2022-08-29T02:12:21.807Z,102301.00
2022-08-29T02:14:51.696Z,102305.25
2022-08-29T02:17:20.751Z,102268.59
2022-08-29T02:19:49.066Z,102313.25
2022-08-29T02:22:20.560Z,102283.00
2022-08-29T02:24:48.851Z,102311.25
2022-08-29T02:27:18.485Z,102299.66
2022-08-29T02:29:46.785Z,102304.16
2022-08-29T02:32:17.905Z,102312.06
2022-08-29T02:34:47.678Z,102315.50
2022-08-29T02:37:17.754Z,102298.53
2022-08-29T02:39:46.098Z,102315.28
2022-08-29T02:42:14.396Z,102312.41
2022-08-29T02:44:44.051Z,102311.84
2022-08-29T02:47:12.423Z,102308.19
2022-08-29T02:49:40.705Z,102324.03
2022-08-29T02:52:09.546Z,102303.44
2022-08-29T02:54:38.336Z,102319.28
2022-08-29T02:57:07.284Z,102316.09
2022-08-29T02:59:35.552Z,102301.66
2022-08-29T03:02:05.599Z,102320.09
2022-08-29T03:04:34.091Z,102322.91
2022-08-29T03:07:02.887Z,102315.28
2022-08-29T03:09:31.122Z,102289.38
2022-08-29T03:11:59.560Z,102296.59
2022-08-29T03:14:27.952Z,102315.91
2022-08-29T03:16:56.201Z,102315.13
2022-08-29T03:19:26.559Z,102301.97
2022-08-29T03:21:55.516Z,102288.50
2022-08-29T03:24:26.225Z,102302.53
2022-08-29T03:26:56.662Z,102304.16
2022-08-29T03:29:26.195Z,102283.19
2022-08-29T03:31:58.186Z,102264.47
2022-08-29T03:34:29.401Z,102291.69
2022-08-29T03:36:58.208Z,102300.66
2022-08-29T03:39:26.954Z,102248.28
2022-08-29T03:41:55.176Z,102298.19
2022-08-29T03:44:23.759Z,102282.19
2022-08-29T03:46:52.061Z,102298.03
2022-08-29T03:49:20.364Z,102293.72
2022-08-29T03:51:50.073Z,102285.63
2022-08-29T03:54:18.666Z,102299.81
2022-08-29T03:56:47.408Z,102298.91
2022-08-29T03:59:16.712Z,102265.09
2022-08-29T04:01:47.411Z,102288.25
2022-08-29T04:04:36.791Z,102295.44
2022-08-29T04:07:07.688Z,102300.72
2022-08-29T04:09:37.541Z,102300.56
2022-08-29T04:12:06.671Z,102291.84
2022-08-29T04:14:35.379Z,102299.03
2022-08-29T04:17:04.259Z,102284.72
2022-08-29T04:19:33.467Z,102277.59
2022-08-29T04:22:01.995Z,102303.16
2022-08-29T04:24:33.564Z,102314.00
2022-08-29T04:27:02.001Z,102303.38
2022-08-29T04:29:30.246Z,102301.59
2022-08-29T04:31:58.547Z,102299.88
2022-08-29T04:34:27.583Z,102304.34
2022-08-29T04:36:55.925Z,102279.44
2022-08-29T04:39:24.143Z,102297.16
2022-08-29T04:41:53.759Z,102306.75
2022-08-29T04:44:22.301Z,102320.09
2022-08-29T04:46:50.687Z,102306.75
2022-08-29T04:49:19.189Z,102312.31
2022-08-29T04:51:47.428Z,102295.25
2022-08-29T04:54:15.703Z,102326.91
2022-08-29T04:56:47.082Z,102307.38
2022-08-29T04:59:18.341Z,102283.44
2022-08-29T05:01:48.873Z,102327.09
2022-08-29T05:04:17.259Z,102331.69
2022-08-29T05:06:45.563Z,102329.91
2022-08-29T05:09:13.841Z,102330.81
2022-08-29T05:11:42.748Z,102321.97
2022-08-29T05:14:11.545Z,102318.44
2022-08-29T05:16:41.997Z,102331.94
2022-08-29T05:19:11.747Z,102292.22
2022-08-29T05:21:41.617Z,102283.69
2022-08-29T05:24:13.132Z,102291.84
2022-08-29T05:26:45.368Z,102327.41
2022-08-29T05:29:14.591Z,102324.75
2022-08-29T05:31:45.637Z,102331.91
2022-08-29T05:34:34.315Z,102338.09
2022-08-29T05:37:03.181Z,102330.19
2022-08-29T05:39:31.521Z,102322.28
2022-08-29T05:42:00.843Z,102325.22
2022-08-29T05:44:35.124Z,102302.25
2022-08-29T05:47:06.808Z,102339.66
2022-08-29T05:49:37.018Z,102327.34
2022-08-29T05:52:06.263Z,102336.31
2022-08-29T05:54:37.896Z,102338.06
2022-08-29T05:57:07.439Z,102341.75
2022-08-29T05:59:37.410Z,102323.09
2022-08-29T06:02:10.225Z,102341.88
2022-08-29T06:04:39.600Z,102336.59
2022-08-29T06:07:09.516Z,102326.00
2022-08-29T06:09:39.692Z,102321.78
2022-08-29T06:12:10.053Z,102335.28
2022-08-29T06:14:38.807Z,102318.50
2022-08-29T06:17:09.432Z,102332.13
2022-08-29T06:19:39.645Z,102336.78
2022-08-29T06:22:10.405Z,102342.47
2022-08-29T06:24:40.163Z,102333.00
2022-08-29T06:27:13.880Z,102324.50
2022-08-29T06:29:43.123Z,102334.53
2022-08-29T06:32:14.332Z,102308.91
2022-08-29T06:34:42.894Z,102331.22
2022-08-29T06:37:11.351Z,102335.78
2022-08-29T06:39:39.680Z,102325.31
2022-08-29T06:42:08.278Z,102333.41
2022-08-29T06:44:38.457Z,102336.22
2022-08-29T06:47:09.703Z,102307.06
2022-08-29T06:49:39.389Z,102325.72
2022-08-29T06:52:07.867Z,102330.22
2022-08-29T06:54:36.180Z,102329.41
2022-08-29T06:57:04.657Z,102311.75
2022-08-29T06:59:33.189Z,102318.88
2022-08-29T07:02:01.639Z,102327.78
2022-08-29T07:04:31.014Z,102313.59
2022-08-29T07:07:00.617Z,102318.03
2022-08-29T07:09:31.038Z,102316.25
2022-08-29T07:11:59.431Z,102302.94
2022-08-29T07:14:27.774Z,102329.50
2022-08-29T07:16:56.702Z,102323.25
2022-08-29T07:19:25.124Z,102317.88
2022-08-29T07:21:54.366Z,102318.81
2022-08-29T07:24:27.964Z,102325.00
2022-08-29T07:26:56.348Z,102319.66
2022-08-29T07:29:24.800Z,102319.63
2022-08-29T07:31:53.572Z,102324.94
2022-08-29T07:34:21.924Z,102319.63
2022-08-29T07:36:50.239Z,102319.66
2022-08-29T07:39:20.641Z,102325.84
2022-08-29T07:41:51.391Z,102309.97
2022-08-29T07:44:20.376Z,102317.00
2022-08-29T07:46:48.781Z,102313.38
2022-08-29T07:49:17.079Z,102319.47
2022-08-29T07:51:45.447Z,102326.41
2022-08-29T07:54:16.813Z,102313.97
2022-08-29T07:56:46.344Z,102316.53
2022-08-29T07:59:17.789Z,102312.84
2022-08-29T08:01:46.301Z,102297.72
2022-08-29T08:04:15.119Z,102287.03
2022-08-29T08:06:45.986Z,102314.34
2022-08-29T08:09:15.348Z,102312.41
2022-08-29T08:11:44.283Z,102296.44
2022-08-29T08:14:13.840Z,102309.63
2022-08-29T08:16:44.885Z,102324.41
2022-08-29T08:19:14.429Z,102329.53
2022-08-29T08:21:49.615Z,102334.50
2022-08-29T08:24:19.902Z,102312.38
2022-08-29T08:26:48.878Z,102323.28
2022-08-29T08:29:18.266Z,102320.19
2022-08-29T08:31:50.352Z,102322.59
2022-08-29T08:34:19.538Z,102316.88
2022-08-29T08:36:47.896Z,102312.38
2022-08-29T08:42:14.466Z,102314.97
2022-08-29T08:45:04.298Z,102329.13
2022-08-29T08:47:40.285Z,102300.75
2022-08-29T08:50:24.317Z,102332.09
2022-08-29T08:52:59.298Z,102331.25
2022-08-29T08:55:39.150Z,102301.69
2022-08-29T08:58:16.976Z,102335.06
2022-08-29T09:00:51.439Z,102319.47
2022-08-29T09:03:50.608Z,102323.28
2022-08-29T09:06:35.181Z,102329.75
2022-08-29T09:09:16.766Z,102317.69
2022-08-29T09:12:01.295Z,102336.41
2022-08-29T09:14:47.915Z,102338.16
2022-08-29T09:17:24.730Z,102302.81
2022-08-29T09:19:57.313Z,102331.56
2022-08-29T09:22:31.469Z,102302.91
2022-08-29T09:25:05.181Z,102300.44
2022-08-29T09:27:36.145Z,102315.66
2022-08-29T09:30:12.048Z,102324.06
2022-08-29T09:33:00.864Z,102318.94
2022-08-29T09:35:39.763Z,102316.56
2022-08-29T09:38:11.284Z,102311.13
2022-08-29T09:40:50.817Z,102309.59
2022-08-29T09:43:34.442Z,102325.03
2022-08-29T09:46:14.698Z,102303.44
2022-08-29T09:48:46.272Z,102310.22
2022-08-29T09:51:24.631Z,102320.41
2022-08-29T09:53:54.440Z,102329.78
2022-08-29T09:56:28.238Z,102312.88
2022-08-29T09:59:05.394Z,102298.97
2022-08-29T10:01:36.591Z,102297.41
2022-08-29T10:04:08.069Z,102311.91
2022-08-29T10:06:46.254Z,102304.34
2022-08-29T10:09:28.059Z,102283.25
2022-08-29T10:12:01.108Z,102315.34
2022-08-29T10:14:37.229Z,102306.41
2022-08-29T10:17:29.888Z,102298.69
2022-08-29T10:19:59.011Z,102309.38
2022-08-29T10:22:37.289Z,102288.31
2022-08-29T10:25:13.562Z,102297.75
2022-08-29T10:27:49.229Z,102304.31
2022-08-29T10:30:22.191Z,102303.59
2022-08-29T10:33:12.670Z,102306.78
2022-08-29T10:35:54.183Z,102293.97
2022-08-29T10:38:47.925Z,102311.94
2022-08-29T10:41:39.587Z,102291.84
2022-08-29T10:44:27.002Z,102284.63
2022-08-29T10:47:17.233Z,102304.97
2022-08-29T10:50:01.864Z,102284.75
2022-08-29T10:52:41.942Z,102288.94
2022-08-29T10:55:21.020Z,102288.66
2022-08-29T10:58:03.566Z,102287.97
2022-08-29T11:00:44.402Z,102270.41
2022-08-29T11:03:26.624Z,102278.22
2022-08-29T11:06:02.240Z,102285.63
2022-08-29T11:08:36.757Z,102279.94
2022-08-29T11:11:06.629Z,102285.16
2022-08-29T11:13:41.459Z,102278.31
2022-08-29T11:16:16.399Z,102261.75
2022-08-29T11:18:50.909Z,102279.75
2022-08-29T11:21:30.900Z,102281.94
2022-08-29T11:24:03.109Z,102277.63
2022-08-29T11:26:57.443Z,102268.97
2022-08-29T11:29:39.449Z,102264.50
2022-08-29T11:32:17.555Z,102257.69
2022-08-29T11:35:07.172Z,102253.88
2022-08-29T11:38:10.786Z,102260.22
2022-08-29T11:41:28.008Z,102262.91
2022-08-29T11:44:11.503Z,102257.38
2022-08-29T11:46:44.602Z,102237.16
2022-08-29T11:49:41.128Z,102252.59
2022-08-29T11:52:27.326Z,102247.22
2022-08-29T11:55:27.306Z,102230.50
2022-08-29T11:58:11.697Z,102247.69
2022-08-29T12:00:53.110Z,102251.94
2022-08-29T12:03:56.687Z,102233.09
2022-08-29T12:07:01.116Z,102257.00
2022-08-29T12:09:49.640Z,102254.28
2022-08-29T12:12:40.603Z,102258.03
2022-08-29T12:15:59.835Z,102242.03
2022-08-29T12:18:49.017Z,102227.31
2022-08-29T12:21:45.588Z,102223.47
2022-08-29T12:24:57.175Z,102245.91
2022-08-29T12:28:03.393Z,102225.19
2022-08-29T12:30:40.626Z,102231.13
2022-08-29T12:33:24.064Z,102222.16
2022-08-29T12:36:24.958Z,102230.09
2022-08-29T12:39:19.457Z,102227.00
2022-08-29T12:42:15.766Z,102208.63
2022-08-29T12:44:48.235Z,102224.69
2022-08-29T12:47:32.400Z,102211.16
2022-08-29T12:50:14.398Z,102202.72
2022-08-29T12:52:44.210Z,102208.69
2022-08-29T12:55:28.739Z,102203.59
2022-08-29T12:57:58.794Z,102186.69
2022-08-29T13:00:32.838Z,102178.31
2022-08-29T13:03:05.576Z,102191.88
2022-08-29T13:05:43.806Z,102187.97
2022-08-29T13:08:33.178Z,102208.31
2022-08-29T13:11:05.499Z,102202.78
2022-08-29T13:13:34.064Z,102204.13
2022-08-29T13:16:06.118Z,102193.25
2022-08-29T13:18:49.114Z,102177.03
2022-08-29T13:21:29.032Z,102190.09
2022-08-29T13:24:05.416Z,102190.00
2022-08-29T13:26:35.336Z,102185.47
2022-08-29T13:29:32.949Z,102166.31
2022-08-29T13:32:20.396Z,102182.78
2022-08-29T13:35:06.989Z,102171.25
2022-08-29T13:37:39.521Z,102165.63
2022-08-29T13:40:37.608Z,102169.66
2022-08-29T13:43:07.335Z,102166.69
2022-08-29T13:45:37.468Z,102166.72
2022-08-29T13:48:20.452Z,102162.56
2022-08-29T13:50:48.874Z,102166.28
2022-08-29T13:53:17.252Z,102157.88
2022-08-29T13:55:47.095Z,102166.22
2022-08-29T13:58:15.990Z,102162.44
2022-08-29T14:00:44.776Z,102155.56
2022-08-29T14:03:16.943Z,102154.22
2022-08-29T14:05:45.872Z,102151.78
2022-08-29T14:08:15.017Z,102118.19
2022-08-29T14:10:43.858Z,102126.22
2022-08-29T14:13:13.494Z,102142.69
2022-08-29T14:15:42.342Z,102107.09
2022-08-29T14:18:10.913Z,102138.03
2022-08-29T14:20:39.900Z,102134.47
2022-08-29T14:23:08.243Z,102122.13
2022-08-29T14:25:36.639Z,102131.22
2022-08-29T14:28:05.255Z,102108.41
2022-08-29T14:30:35.004Z,102126.63
2022-08-29T14:33:03.346Z,102114.16
2022-08-29T14:35:32.311Z,102129.38
2022-08-29T14:38:02.388Z,102111.00
2022-08-29T14:40:32.691Z,102116.84
2022-08-29T14:43:02.590Z,102116.03
2022-08-29T14:45:33.959Z,102115.06
2022-08-29T14:48:02.593Z,102112.41
2022-08-29T14:50:31.083Z,102112.63
2022-08-29T14:52:59.777Z,102097.81
2022-08-29T14:55:28.450Z,102101.28
2022-08-29T14:57:56.823Z,102100.63
2022-08-29T15:00:28.733Z,102084.22
2022-08-29T15:02:58.629Z,102080.72
2022-08-29T15:05:27.155Z,102088.00
2022-08-29T15:07:55.401Z,102098.22
2022-08-29T15:10:27.865Z,102077.72
2022-08-29T15:12:56.364Z,102095.25
2022-08-29T15:15:29.346Z,102080.66
2022-08-29T15:18:02.493Z,102084.50
2022-08-29T15:20:37.800Z,102088.47
2022-08-29T15:23:07.103Z,102097.28
2022-08-29T15:25:35.576Z,102080.75
2022-08-29T15:28:05.613Z,102078.09
2022-08-29T15:30:34.979Z,102076.75
2022-08-29T15:33:05.243Z,102071.09
2022-08-29T15:35:34.611Z,102056.69
2022-08-29T15:38:03.438Z,102072.56
2022-08-29T15:40:32.066Z,102064.63
2022-08-29T15:43:00.475Z,102070.50
2022-08-29T15:45:28.905Z,102050.50
2022-08-29T15:48:00.829Z,102054.16
2022-08-29T15:50:31.286Z,102064.47
2022-08-29T15:52:59.630Z,102059.53
2022-08-29T15:55:28.069Z,102057.09
2022-08-29T15:57:56.432Z,102050.88
2022-08-29T16:00:30.761Z,102026.28
2022-08-29T16:03:03.254Z,102035.13
2022-08-29T16:05:34.860Z,102035.88
2022-08-29T16:08:03.882Z,102056.06
2022-08-29T16:10:33.301Z,102051.38
2022-08-29T16:13:01.848Z,102059.56
2022-08-29T16:15:31.447Z,102054.59
2022-08-29T16:18:00.869Z,102058.09
2022-08-29T16:20:29.767Z,102047.66
2022-08-29T16:23:00.377Z,102057.53
2022-08-29T16:25:31.049Z,102060.16
2022-08-29T16:28:00.143Z,102051.19
2022-08-29T16:30:30.146Z,102036.78
2022-08-29T16:32:58.993Z,102059.28
2022-08-29T16:35:27.680Z,102057.28
2022-08-29T16:38:02.304Z,102059.72
2022-08-29T16:40:32.612Z,102052.56
2022-08-29T16:43:02.706Z,102057.97
2022-08-29T16:45:31.652Z,102056.47
2022-08-29T16:48:00.307Z,102050.31
2022-08-29T16:50:30.362Z,102031.34
2022-08-29T16:53:01.718Z,102029.63
2022-08-29T16:55:30.613Z,102026.50
2022-08-29T16:58:19.810Z,102032.97
2022-08-29T17:00:51.090Z,102049.19
2022-08-29T17:03:20.355Z,102050.56
2022-08-29T17:05:49.560Z,102047.63
2022-08-29T17:08:18.682Z,102042.78
2022-08-29T17:10:46.121Z,102047.13
2022-08-29T17:13:13.486Z,102042.13
2022-08-29T17:15:41.106Z,102038.53
2022-08-29T17:18:09.947Z,102027.47
2022-08-29T17:20:38.463Z,102037.00
2022-08-29T17:23:10.422Z,102030.47
2022-08-29T17:25:41.274Z,102014.75
2022-08-29T17:28:18.504Z,102046.69
2022-08-29T17:30:48.923Z,102040.25
2022-08-29T17:33:18.520Z,102031.25
2022-08-29T17:35:47.525Z,102043.56
2022-08-29T17:38:16.569Z,102041.34
2022-08-29T17:40:46.625Z,102027.59
2022-08-29T17:43:18.382Z,102041.72
2022-08-29T17:45:47.191Z,102052.06
2022-08-29T17:48:15.622Z,102051.97
2022-08-29T17:50:44.536Z,102028.75
2022-08-29T17:53:13.512Z,102016.53
2022-08-29T17:55:41.933Z,102050.16
2022-08-29T17:58:12.210Z,102045.16
2022-08-29T18:00:40.747Z,102061.31
2022-08-29T18:03:09.481Z,102059.44
2022-08-29T18:05:37.900Z,102049.84
2022-08-29T18:08:06.337Z,102064.00
2022-08-29T18:10:36.919Z,102041.50
2022-08-29T18:13:05.335Z,102056.13
2022-08-29T18:15:35.565Z,102026.81
2022-08-29T18:18:04.609Z,102042.56
2022-08-29T18:20:33.129Z,102038.56
2022-08-29T18:23:01.359Z,102041.28
2022-08-29T18:25:29.904Z,102058.34
2022-08-29T18:27:58.419Z,102070.22
2022-08-29T18:30:27.528Z,102068.34
2022-08-29T18:32:57.230Z,102072.09
2022-08-29T18:35:25.678Z,102075.69
2022-08-29T18:37:53.985Z,102071.16
2022-08-29T18:40:22.439Z,102074.88
2022-08-29T18:42:52.568Z,102078.44
2022-08-29T18:45:21.061Z,102080.31
2022-08-29T18:47:49.379Z,102025.75
2022-08-29T18:50:37.569Z,102084.09
2022-08-29T18:53:10.746Z,102077.22
2022-08-29T18:55:40.655Z,102090.56
2022-08-29T18:58:09.755Z,102074.69
2022-08-29T19:00:39.195Z,102094.16
2022-08-29T19:03:07.957Z,102068.53
2022-08-29T19:05:41.818Z,102078.34
2022-08-29T19:08:12.635Z,102091.69
2022-08-29T19:10:41.039Z,102077.69
2022-08-29T19:13:09.421Z,102105.09
2022-08-29T19:15:41.478Z,102094.50
2022-08-29T19:18:11.719Z,102105.09
2022-08-29T19:20:59.634Z,102115.84
2022-08-29T19:23:28.043Z,102098.22
2022-08-29T19:25:56.378Z,102119.38
2022-08-29T19:28:25.620Z,102109.69
2022-08-29T19:30:54.582Z,102105.31
2022-08-29T19:33:23.370Z,102118.59
2022-08-29T19:35:53.751Z,102113.31
2022-08-29T19:38:24.105Z,102112.44
2022-08-29T19:40:56.569Z,102116.88
2022-08-29T19:43:27.584Z,102118.69
2022-08-29T19:45:57.472Z,102101.81
2022-08-29T19:48:30.906Z,102101.84
2022-08-29T19:51:00.717Z,102116.88
2022-08-29T19:53:29.060Z,102125.78
2022-08-29T19:55:57.610Z,102122.28
2022-08-29T19:58:31.231Z,102107.19
2022-08-29T20:01:02.582Z,102123.13
2022-08-29T20:03:32.414Z,102123.16
2022-08-29T20:06:06.193Z,102116.97
2022-08-29T20:08:37.156Z,102112.56
2022-08-29T20:11:06.610Z,102121.41
2022-08-29T20:13:36.321Z,102100.19
2022-08-29T20:16:12.350Z,102098.41
2022-08-29T20:18:41.879Z,102119.66
2022-08-29T20:21:12.735Z,102104.63
2022-08-29T20:23:49.366Z,102099.31
2022-08-29T20:26:21.015Z,102111.69
2022-08-29T20:28:51.571Z,102125.00
2022-08-29T20:31:20.922Z,102109.09
2022-08-29T20:33:50.094Z,102129.41
2022-08-29T20:36:40.948Z,102110.84
2022-08-29T20:39:12.648Z,102126.81
2022-08-29T20:41:41.111Z,102106.41
2022-08-29T20:44:10.932Z,102120.56
2022-08-29T20:46:40.989Z,102111.75
2022-08-29T20:49:10.425Z,102140.94
2022-08-29T20:51:44.113Z,102113.53
2022-08-29T20:54:13.960Z,102118.78
2022-08-29T20:56:43.980Z,102134.69
2022-08-29T20:59:12.809Z,102137.38
2022-08-29T21:01:41.799Z,102118.78
2022-08-29T21:04:29.323Z,102116.13
2022-08-29T21:07:03.757Z,102121.44
2022-08-29T21:09:32.680Z,102118.78
2022-08-29T21:12:01.100Z,102145.34
2022-08-29T21:14:29.781Z,102122.34
2022-08-29T21:16:59.218Z,102153.31
2022-08-29T21:19:30.246Z,102148.88
2022-08-29T21:22:01.952Z,102121.44
2022-08-29T21:24:31.022Z,102140.03
2022-08-29T21:26:59.538Z,102138.25
2022-08-29T21:29:27.837Z,102139.16
2022-08-29T21:31:56.425Z,102135.59
2022-08-29T21:34:25.105Z,102134.72
2022-08-29T21:36:54.407Z,102139.13
2022-08-29T21:39:28.644Z,102139.16
2022-08-29T21:42:02.525Z,102146.19
2022-08-29T21:44:32.018Z,102147.09
2022-08-29T21:47:00.831Z,102153.25
2022-08-29T21:49:30.581Z,102133.78
2022-08-29T21:51:58.972Z,102145.34
2022-08-29T21:54:29.041Z,102132.91
2022-08-29T21:56:57.374Z,102150.63
2022-08-29T21:59:28.388Z,102147.06
2022-08-29T22:01:57.005Z,102139.06
2022-08-29T22:04:28.637Z,102157.69
2022-08-29T22:06:59.205Z,102158.56
2022-08-29T22:09:30.217Z,102160.25
2022-08-29T22:11:59.803Z,102162.91
2022-08-29T22:14:43.322Z,102145.25
2022-08-29T22:17:11.766Z,102138.13
2022-08-29T22:19:40.391Z,102161.13
2022-08-29T22:22:10.502Z,102165.56
2022-08-29T22:24:40.271Z,102164.72
2022-08-29T22:27:09.242Z,102161.16
2022-08-29T22:29:38.062Z,102174.44
2022-08-29T22:32:07.076Z,102138.13
2022-08-29T22:34:35.643Z,102173.56
2022-08-29T22:37:04.364Z,102171.78
2022-08-29T22:39:32.704Z,102168.13
2022-08-29T22:42:02.566Z,102172.56
2022-08-29T22:47:20.185Z,102155.84
2022-08-29T22:49:48.763Z,102109.72
2022-08-29T22:52:17.393Z,102170.75
2022-08-29T22:57:32.744Z,102183.13
2022-08-29T23:00:01.112Z,102183.13
2022-08-29T23:02:29.595Z,102167.19
2022-08-29T23:04:58.047Z,102183.13
2022-08-29T23:07:26.449Z,102166.16
2022-08-29T23:09:56.008Z,102167.00
2022-08-29T23:12:24.750Z,102187.34
2022-08-29T23:14:54.531Z,102180.22
2022-08-29T23:17:23.361Z,102178.50
2022-08-29T23:19:51.733Z,102185.66
2022-08-29T23:22:20.111Z,102193.56
2022-08-29T23:24:53.840Z,102183.91
2022-08-29T23:27:29.206Z,102158.19
2022-08-29T23:29:59.870Z,102157.28
2022-08-29T23:32:29.667Z,102176.75
2022-08-29T23:34:58.056Z,102170.53
2022-08-29T23:37:26.532Z,102174.81
2022-08-29T23:39:55.184Z,102165.13
2022-08-29T23:42:23.593Z,102175.78
2022-08-29T23:44:52.240Z,102183.72
2022-08-29T23:47:21.935Z,102187.31
2022-08-29T23:49:50.313Z,102187.25
2022-08-29T23:52:18.779Z,102177.53
2022-08-29T23:54:47.201Z,102182.81
2022-08-29T23:57:15.612Z,102180.13
